sensor_id;sensor_type;location;lat;lon;timestamp;P1;durP1;ratioP1;P2;durP2;ratioP2
26098;SDS011;13860;52.370;6.764;2022-11-20T00:02:04;24.92;;;12.27;;
26098;SDS011;13860;52.370;6.764;2022-11-20T00:05:08;22.50;;;11.25;;
26098;SDS011;13860;52.370;6.764;2022-11-20T00:08:12;24.40;;;11.50;;
26098;SDS011;13860;52.370;6.764;2022-11-20T00:11:16;24.42;;;11.00;;
26098;SDS011;13860;52.370;6.764;2022-11-20T00:14:21;21.35;;;11.45;;
26098;SDS011;13860;52.370;6.764;2022-11-20T00:17:27;21.70;;;12.27;;
26098;SDS011;13860;52.370;6.764;2022-11-20T00:20:31;21.38;;;11.15;;
26098;SDS011;13860;52.370;6.764;2022-11-20T00:23:34;21.75;;;10.73;;
26098;SDS011;13860;52.370;6.764;2022-11-20T00:26:38;24.80;;;10.93;;
26098;SDS011;13860;52.370;6.764;2022-11-20T00:29:42;18.50;;;10.52;;
26098;SDS011;13860;52.370;6.764;2022-11-20T00:32:48;26.60;;;10.98;;
26098;SDS011;13860;52.370;6.764;2022-11-20T00:35:52;24.30;;;11.43;;
26098;SDS011;13860;52.370;6.764;2022-11-20T00:38:56;21.42;;;10.45;;
26098;SDS011;13860;52.370;6.764;2022-11-20T00:42:00;23.65;;;11.75;;
26098;SDS011;13860;52.370;6.764;2022-11-20T00:45:05;31.52;;;12.35;;
26098;SDS011;13860;52.370;6.764;2022-11-20T00:48:11;25.70;;;11.68;;
26098;SDS011;13860;52.370;6.764;2022-11-20T00:51:15;21.20;;;10.20;;
26098;SDS011;13860;52.370;6.764;2022-11-20T00:54:20;24.50;;;11.82;;
26098;SDS011;13860;52.370;6.764;2022-11-20T00:57:24;24.10;;;11.38;;
26098;SDS011;13860;52.370;6.764;2022-11-20T01:00:27;23.33;;;11.02;;
26098;SDS011;13860;52.370;6.764;2022-11-20T01:03:33;20.33;;;10.57;;
26098;SDS011;13860;52.370;6.764;2022-11-20T01:06:38;21.58;;;11.90;;
26098;SDS011;13860;52.370;6.764;2022-11-20T01:09:42;23.55;;;10.75;;
26098;SDS011;13860;52.370;6.764;2022-11-20T01:12:46;22.27;;;10.68;;
26098;SDS011;13860;52.370;6.764;2022-11-20T01:16:11;22.58;;;11.05;;
26098;SDS011;13860;52.370;6.764;2022-11-20T01:19:18;20.08;;;11.00;;
26098;SDS011;13860;52.370;6.764;2022-11-20T01:22:24;21.10;;;10.30;;
26098;SDS011;13860;52.370;6.764;2022-11-20T01:25:28;23.48;;;12.32;;
26098;SDS011;13860;52.370;6.764;2022-11-20T01:28:32;22.60;;;11.57;;
26098;SDS011;13860;52.370;6.764;2022-11-20T01:31:36;25.90;;;11.95;;
26098;SDS011;13860;52.370;6.764;2022-11-20T01:34:42;22.52;;;10.95;;
26098;SDS011;13860;52.370;6.764;2022-11-20T01:37:46;22.27;;;11.70;;
26098;SDS011;13860;52.370;6.764;2022-11-20T01:40:58;23.55;;;11.85;;
26098;SDS011;13860;52.370;6.764;2022-11-20T01:44:03;25.17;;;12.17;;
26098;SDS011;13860;52.370;6.764;2022-11-20T01:47:05;20.85;;;8.73;;
26098;SDS011;13860;52.370;6.764;2022-11-20T01:50:14;33.25;;;12.98;;
26098;SDS011;13860;52.370;6.764;2022-11-20T01:53:23;25.02;;;12.52;;
26098;SDS011;13860;52.370;6.764;2022-11-20T01:56:32;25.88;;;12.55;;
26098;SDS011;13860;52.370;6.764;2022-11-20T01:59:40;24.85;;;11.73;;
26098;SDS011;13860;52.370;6.764;2022-11-20T02:02:53;25.27;;;11.77;;
26098;SDS011;13860;52.370;6.764;2022-11-20T02:06:04;25.85;;;12.27;;
26098;SDS011;13860;52.370;6.764;2022-11-20T02:09:13;28.83;;;12.20;;
26098;SDS011;13860;52.370;6.764;2022-11-20T02:12:17;21.10;;;11.27;;
26098;SDS011;13860;52.370;6.764;2022-11-20T02:15:34;23.75;;;11.43;;
26098;SDS011;13860;52.370;6.764;2022-11-20T02:18:38;20.20;;;10.57;;
26098;SDS011;13860;52.370;6.764;2022-11-20T02:21:46;20.05;;;11.68;;
26098;SDS011;13860;52.370;6.764;2022-11-20T02:24:59;31.10;;;12.57;;
26098;SDS011;13860;52.370;6.764;2022-11-20T02:28:05;31.27;;;14.27;;
26098;SDS011;13860;52.370;6.764;2022-11-20T02:31:09;30.70;;;13.63;;
26098;SDS011;13860;52.370;6.764;2022-11-20T02:34:12;32.03;;;13.40;;
26098;SDS011;13860;52.370;6.764;2022-11-20T02:43:46;29.05;;;11.80;;
26098;SDS011;13860;52.370;6.764;2022-11-20T02:46:49;25.23;;;12.10;;
26098;SDS011;13860;52.370;6.764;2022-11-20T02:49:53;25.02;;;10.48;;
26098;SDS011;13860;52.370;6.764;2022-11-20T02:52:57;31.17;;;13.10;;
26098;SDS011;13860;52.370;6.764;2022-11-20T02:56:03;40.85;;;15.27;;
26098;SDS011;13860;52.370;6.764;2022-11-20T02:59:07;58.67;;;20.70;;
26098;SDS011;13860;52.370;6.764;2022-11-20T03:02:11;45.15;;;15.63;;
26098;SDS011;13860;52.370;6.764;2022-11-20T03:05:15;33.13;;;13.23;;
26098;SDS011;13860;52.370;6.764;2022-11-20T03:08:19;26.85;;;12.07;;
26098;SDS011;13860;52.370;6.764;2022-11-20T03:11:24;28.17;;;12.40;;
26098;SDS011;13860;52.370;6.764;2022-11-20T03:14:28;29.83;;;13.27;;
26098;SDS011;13860;52.370;6.764;2022-11-20T03:17:32;29.88;;;12.80;;
26098;SDS011;13860;52.370;6.764;2022-11-20T03:20:36;30.17;;;13.70;;
26098;SDS011;13860;52.370;6.764;2022-11-20T03:23:39;29.60;;;12.73;;
26098;SDS011;13860;52.370;6.764;2022-11-20T03:26:45;29.17;;;13.48;;
26098;SDS011;13860;52.370;6.764;2022-11-20T03:29:49;29.50;;;11.98;;
26098;SDS011;13860;52.370;6.764;2022-11-20T03:36:00;27.15;;;13.07;;
26098;SDS011;13860;52.370;6.764;2022-11-20T03:39:04;29.20;;;13.00;;
26098;SDS011;13860;52.370;6.764;2022-11-20T03:42:10;25.25;;;12.15;;
26098;SDS011;13860;52.370;6.764;2022-11-20T03:45:27;26.35;;;12.55;;
26098;SDS011;13860;52.370;6.764;2022-11-20T03:48:31;28.55;;;13.25;;
26098;SDS011;13860;52.370;6.764;2022-11-20T03:51:35;25.70;;;12.85;;
26098;SDS011;13860;52.370;6.764;2022-11-20T03:54:39;24.35;;;12.02;;
26098;SDS011;13860;52.370;6.764;2022-11-20T03:57:44;29.95;;;12.85;;
26098;SDS011;13860;52.370;6.764;2022-11-20T04:00:48;25.00;;;13.02;;
26098;SDS011;13860;52.370;6.764;2022-11-20T04:03:52;27.80;;;11.68;;
26098;SDS011;13860;52.370;6.764;2022-11-20T04:06:57;29.15;;;11.77;;
26098;SDS011;13860;52.370;6.764;2022-11-20T04:10:01;29.48;;;12.63;;
26098;SDS011;13860;52.370;6.764;2022-11-20T04:13:08;26.73;;;11.73;;
26098;SDS011;13860;52.370;6.764;2022-11-20T04:16:11;23.40;;;11.32;;
26098;SDS011;13860;52.370;6.764;2022-11-20T04:19:15;26.25;;;11.48;;
26098;SDS011;13860;52.370;6.764;2022-11-20T04:22:20;25.23;;;11.30;;
26098;SDS011;13860;52.370;6.764;2022-11-20T04:25:23;23.85;;;11.20;;
26098;SDS011;13860;52.370;6.764;2022-11-20T04:28:29;23.95;;;11.40;;
26098;SDS011;13860;52.370;6.764;2022-11-20T04:31:33;23.80;;;11.80;;
26098;SDS011;13860;52.370;6.764;2022-11-20T04:34:37;24.88;;;11.27;;
26098;SDS011;13860;52.370;6.764;2022-11-20T04:37:41;22.15;;;10.88;;
26098;SDS011;13860;52.370;6.764;2022-11-20T04:40:45;24.58;;;10.68;;
26098;SDS011;13860;52.370;6.764;2022-11-20T04:43:52;19.85;;;10.45;;
26098;SDS011;13860;52.370;6.764;2022-11-20T04:47:00;22.33;;;10.20;;
26098;SDS011;13860;52.370;6.764;2022-11-20T04:50:04;21.73;;;10.65;;
26098;SDS011;13860;52.370;6.764;2022-11-20T04:53:08;23.63;;;11.57;;
26098;SDS011;13860;52.370;6.764;2022-11-20T04:56:12;22.40;;;11.43;;
26098;SDS011;13860;52.370;6.764;2022-11-20T04:59:18;26.23;;;11.10;;
26098;SDS011;13860;52.370;6.764;2022-11-20T05:02:23;23.15;;;11.05;;
26098;SDS011;13860;52.370;6.764;2022-11-20T05:05:26;21.17;;;10.48;;
26098;SDS011;13860;52.370;6.764;2022-11-20T05:08:30;21.00;;;10.07;;
26098;SDS011;13860;52.370;6.764;2022-11-20T05:11:34;21.35;;;10.32;;
26098;SDS011;13860;52.370;6.764;2022-11-20T05:14:40;24.15;;;11.80;;
26098;SDS011;13860;52.370;6.764;2022-11-20T05:17:46;24.92;;;10.70;;
26098;SDS011;13860;52.370;6.764;2022-11-20T05:20:54;23.23;;;10.82;;
26098;SDS011;13860;52.370;6.764;2022-11-20T05:23:58;21.75;;;11.10;;
26098;SDS011;13860;52.370;6.764;2022-11-20T05:27:02;20.60;;;11.05;;
26098;SDS011;13860;52.370;6.764;2022-11-20T05:30:09;18.38;;;10.13;;
26098;SDS011;13860;52.370;6.764;2022-11-20T05:33:14;21.65;;;10.55;;
26098;SDS011;13860;52.370;6.764;2022-11-20T05:36:18;23.10;;;11.52;;
26098;SDS011;13860;52.370;6.764;2022-11-20T05:39:22;19.13;;;10.15;;
26098;SDS011;13860;52.370;6.764;2022-11-20T05:42:25;20.50;;;10.07;;
26098;SDS011;13860;52.370;6.764;2022-11-20T05:45:38;22.92;;;10.98;;
26098;SDS011;13860;52.370;6.764;2022-11-20T05:48:42;23.92;;;10.88;;
26098;SDS011;13860;52.370;6.764;2022-11-20T05:51:47;20.75;;;10.15;;
26098;SDS011;13860;52.370;6.764;2022-11-20T05:54:50;22.67;;;10.90;;
26098;SDS011;13860;52.370;6.764;2022-11-20T05:57:54;21.52;;;11.10;;
26098;SDS011;13860;52.370;6.764;2022-11-20T06:01:05;20.38;;;10.30;;
26098;SDS011;13860;52.370;6.764;2022-11-20T06:04:09;23.15;;;10.85;;
26098;SDS011;13860;52.370;6.764;2022-11-20T06:07:13;23.92;;;10.73;;
26098;SDS011;13860;52.370;6.764;2022-11-20T06:10:17;24.40;;;12.18;;
26098;SDS011;13860;52.370;6.764;2022-11-20T06:13:20;22.45;;;10.93;;
26098;SDS011;13860;52.370;6.764;2022-11-20T06:16:26;22.25;;;10.30;;
26098;SDS011;13860;52.370;6.764;2022-11-20T06:19:30;19.63;;;9.80;;
26098;SDS011;13860;52.370;6.764;2022-11-20T06:25:37;22.23;;;10.60;;
26098;SDS011;13860;52.370;6.764;2022-11-20T06:28:41;25.35;;;10.73;;
26098;SDS011;13860;52.370;6.764;2022-11-20T06:31:47;21.63;;;11.05;;
26098;SDS011;13860;52.370;6.764;2022-11-20T06:34:51;23.00;;;11.02;;
26098;SDS011;13860;52.370;6.764;2022-11-20T06:37:55;21.80;;;10.95;;
26098;SDS011;13860;52.370;6.764;2022-11-20T06:40:59;21.88;;;10.77;;
26098;SDS011;13860;52.370;6.764;2022-11-20T06:44:03;21.15;;;10.52;;
26098;SDS011;13860;52.370;6.764;2022-11-20T06:47:09;24.90;;;11.15;;
26098;SDS011;13860;52.370;6.764;2022-11-20T06:50:13;23.17;;;11.25;;
26098;SDS011;13860;52.370;6.764;2022-11-20T06:53:17;21.52;;;11.13;;
26098;SDS011;13860;52.370;6.764;2022-11-20T06:56:21;26.52;;;12.65;;
26098;SDS011;13860;52.370;6.764;2022-11-20T06:59:25;28.50;;;11.82;;
26098;SDS011;13860;52.370;6.764;2022-11-20T07:02:30;27.40;;;13.40;;
26098;SDS011;13860;52.370;6.764;2022-11-20T07:05:35;26.48;;;12.20;;
26098;SDS011;13860;52.370;6.764;2022-11-20T07:08:39;31.08;;;13.93;;
26098;SDS011;13860;52.370;6.764;2022-11-20T07:11:43;27.30;;;12.70;;
26098;SDS011;13860;52.370;6.764;2022-11-20T07:17:52;25.77;;;11.73;;
26098;SDS011;13860;52.370;6.764;2022-11-20T07:20:55;26.65;;;11.73;;
26098;SDS011;13860;52.370;6.764;2022-11-20T07:24:02;24.30;;;11.77;;
26098;SDS011;13860;52.370;6.764;2022-11-20T07:27:06;22.48;;;11.45;;
26098;SDS011;13860;52.370;6.764;2022-11-20T07:30:11;21.92;;;11.20;;
26098;SDS011;13860;52.370;6.764;2022-11-20T07:33:18;23.40;;;10.45;;
26098;SDS011;13860;52.370;6.764;2022-11-20T07:36:22;27.60;;;12.77;;
26098;SDS011;13860;52.370;6.764;2022-11-20T07:39:26;23.83;;;10.65;;
26098;SDS011;13860;52.370;6.764;2022-11-20T07:42:29;24.63;;;12.20;;
26098;SDS011;13860;52.370;6.764;2022-11-20T07:45:33;26.15;;;11.90;;
26098;SDS011;13860;52.370;6.764;2022-11-20T07:48:39;23.60;;;11.55;;
26098;SDS011;13860;52.370;6.764;2022-11-20T07:51:43;28.00;;;12.52;;
26098;SDS011;13860;52.370;6.764;2022-11-20T07:54:52;23.55;;;11.75;;
26098;SDS011;13860;52.370;6.764;2022-11-20T07:57:56;25.92;;;11.80;;
26098;SDS011;13860;52.370;6.764;2022-11-20T08:01:02;31.73;;;12.45;;
26098;SDS011;13860;52.370;6.764;2022-11-20T08:04:08;47.83;;;17.65;;
26098;SDS011;13860;52.370;6.764;2022-11-20T08:07:12;32.65;;;12.75;;
26098;SDS011;13860;52.370;6.764;2022-11-20T08:10:16;24.35;;;11.73;;
26098;SDS011;13860;52.370;6.764;2022-11-20T08:13:20;26.50;;;11.73;;
26098;SDS011;13860;52.370;6.764;2022-11-20T08:16:37;25.95;;;13.18;;
26098;SDS011;13860;52.370;6.764;2022-11-20T08:19:43;29.95;;;13.32;;
26098;SDS011;13860;52.370;6.764;2022-11-20T08:22:46;26.40;;;12.10;;
26098;SDS011;13860;52.370;6.764;2022-11-20T08:25:50;31.98;;;12.82;;
26098;SDS011;13860;52.370;6.764;2022-11-20T08:28:54;28.92;;;13.93;;
26098;SDS011;13860;52.370;6.764;2022-11-20T08:31:58;30.60;;;13.35;;
26098;SDS011;13860;52.370;6.764;2022-11-20T08:35:04;27.13;;;13.60;;
26098;SDS011;13860;52.370;6.764;2022-11-20T08:38:09;34.33;;;15.73;;
26098;SDS011;13860;52.370;6.764;2022-11-20T08:41:12;33.15;;;15.75;;
26098;SDS011;13860;52.370;6.764;2022-11-20T08:44:28;31.52;;;14.40;;
26098;SDS011;13860;52.370;6.764;2022-11-20T08:47:32;32.92;;;14.95;;
26098;SDS011;13860;52.370;6.764;2022-11-20T08:50:38;24.30;;;12.75;;
26098;SDS011;13860;52.370;6.764;2022-11-20T08:53:41;28.52;;;13.10;;
26098;SDS011;13860;52.370;6.764;2022-11-20T08:56:45;28.20;;;13.00;;
26098;SDS011;13860;52.370;6.764;2022-11-20T09:03:07;27.08;;;12.82;;
26098;SDS011;13860;52.370;6.764;2022-11-20T09:06:13;26.05;;;13.98;;
26098;SDS011;13860;52.370;6.764;2022-11-20T09:09:16;24.05;;;12.85;;
26098;SDS011;13860;52.370;6.764;2022-11-20T09:12:21;28.80;;;13.13;;
26098;SDS011;13860;52.370;6.764;2022-11-20T09:15:25;26.58;;;13.90;;
26098;SDS011;13860;52.370;6.764;2022-11-20T09:18:29;30.77;;;13.80;;
26098;SDS011;13860;52.370;6.764;2022-11-20T09:21:35;31.95;;;14.45;;
26098;SDS011;13860;52.370;6.764;2022-11-20T09:24:39;30.25;;;14.80;;
26098;SDS011;13860;52.370;6.764;2022-11-20T09:27:43;26.90;;;13.30;;
26098;SDS011;13860;52.370;6.764;2022-11-20T09:30:47;30.90;;;14.45;;
26098;SDS011;13860;52.370;6.764;2022-11-20T09:33:51;30.42;;;14.77;;
26098;SDS011;13860;52.370;6.764;2022-11-20T09:36:57;34.45;;;16.45;;
26098;SDS011;13860;52.370;6.764;2022-11-20T09:40:09;30.80;;;15.68;;
26098;SDS011;13860;52.370;6.764;2022-11-20T09:43:24;34.17;;;17.77;;
26098;SDS011;13860;52.370;6.764;2022-11-20T09:46:40;37.05;;;17.10;;
26098;SDS011;13860;52.370;6.764;2022-11-20T09:49:53;35.38;;;17.88;;
26098;SDS011;13860;52.370;6.764;2022-11-20T09:53:13;39.03;;;17.77;;
26098;SDS011;13860;52.370;6.764;2022-11-20T09:56:26;37.00;;;18.65;;
26098;SDS011;13860;52.370;6.764;2022-11-20T09:59:33;37.50;;;17.30;;
26098;SDS011;13860;52.370;6.764;2022-11-20T10:02:42;33.05;;;17.23;;
26098;SDS011;13860;52.370;6.764;2022-11-20T10:05:52;39.60;;;16.73;;
26098;SDS011;13860;52.370;6.764;2022-11-20T10:09:13;34.58;;;17.20;;
26098;SDS011;13860;52.370;6.764;2022-11-20T10:12:26;36.15;;;17.15;;
26098;SDS011;13860;52.370;6.764;2022-11-20T10:15:38;31.88;;;16.02;;
26098;SDS011;13860;52.370;6.764;2022-11-20T10:18:54;31.92;;;15.80;;
26098;SDS011;13860;52.370;6.764;2022-11-20T10:22:08;32.55;;;14.50;;
26098;SDS011;13860;52.370;6.764;2022-11-20T10:25:19;30.15;;;14.95;;
26098;SDS011;13860;52.370;6.764;2022-11-20T10:28:40;30.40;;;13.88;;
26098;SDS011;13860;52.370;6.764;2022-11-20T10:32:00;24.08;;;13.00;;
26098;SDS011;13860;52.370;6.764;2022-11-20T10:35:07;26.92;;;14.35;;
26098;SDS011;13860;52.370;6.764;2022-11-20T10:38:21;30.58;;;15.02;;
26098;SDS011;13860;52.370;6.764;2022-11-20T10:41:32;27.58;;;14.32;;
26098;SDS011;13860;52.370;6.764;2022-11-20T10:44:43;27.02;;;14.25;;
26098;SDS011;13860;52.370;6.764;2022-11-20T10:48:09;27.08;;;13.85;;
26098;SDS011;13860;52.370;6.764;2022-11-20T10:51:30;28.38;;;14.30;;
26098;SDS011;13860;52.370;6.764;2022-11-20T10:54:40;24.98;;;13.27;;
26098;SDS011;13860;52.370;6.764;2022-11-20T10:57:54;28.98;;;13.77;;
26098;SDS011;13860;52.370;6.764;2022-11-20T11:01:05;23.83;;;12.55;;
26098;SDS011;13860;52.370;6.764;2022-11-20T11:04:21;25.13;;;12.57;;
26098;SDS011;13860;52.370;6.764;2022-11-20T11:07:35;22.50;;;12.52;;
26098;SDS011;13860;52.370;6.764;2022-11-20T11:10:42;28.38;;;15.27;;
26098;SDS011;13860;52.370;6.764;2022-11-20T11:13:53;27.30;;;13.02;;
26098;SDS011;13860;52.370;6.764;2022-11-20T11:17:17;23.63;;;13.27;;
26098;SDS011;13860;52.370;6.764;2022-11-20T11:20:27;22.48;;;11.77;;
26098;SDS011;13860;52.370;6.764;2022-11-20T11:23:33;22.17;;;12.23;;
26098;SDS011;13860;52.370;6.764;2022-11-20T11:26:39;23.20;;;11.85;;
26098;SDS011;13860;52.370;6.764;2022-11-20T11:33:18;23.65;;;11.70;;
26098;SDS011;13860;52.370;6.764;2022-11-20T11:36:23;21.98;;;12.30;;
26098;SDS011;13860;52.370;6.764;2022-11-20T11:39:27;22.98;;;12.00;;
26098;SDS011;13860;52.370;6.764;2022-11-20T11:42:33;23.95;;;12.77;;
26098;SDS011;13860;52.370;6.764;2022-11-20T11:48:40;21.43;;;11.83;;
26098;SDS011;13860;52.370;6.764;2022-11-20T11:51:59;28.20;;;11.98;;
26098;SDS011;13860;52.370;6.764;2022-11-20T11:55:07;22.88;;;11.55;;
26098;SDS011;13860;52.370;6.764;2022-11-20T11:58:20;23.48;;;12.00;;
26098;SDS011;13860;52.370;6.764;2022-11-20T12:01:41;24.13;;;13.95;;
26098;SDS011;13860;52.370;6.764;2022-11-20T12:07:58;25.58;;;12.48;;
26098;SDS011;13860;52.370;6.764;2022-11-20T12:11:14;27.02;;;13.40;;
26098;SDS011;13860;52.370;6.764;2022-11-20T12:14:24;26.25;;;13.20;;
26098;SDS011;13860;52.370;6.764;2022-11-20T12:17:37;22.80;;;12.18;;
26098;SDS011;13860;52.370;6.764;2022-11-20T12:20:41;23.52;;;12.25;;
26098;SDS011;13860;52.370;6.764;2022-11-20T12:23:54;23.63;;;12.30;;
26098;SDS011;13860;52.370;6.764;2022-11-20T12:30:48;22.85;;;11.88;;
26098;SDS011;13860;52.370;6.764;2022-11-20T12:34:05;24.70;;;11.15;;
26098;SDS011;13860;52.370;6.764;2022-11-20T12:37:20;24.52;;;12.27;;
26098;SDS011;13860;52.370;6.764;2022-11-20T12:40:34;22.80;;;11.95;;
26098;SDS011;13860;52.370;6.764;2022-11-20T12:43:48;23.48;;;11.90;;
26098;SDS011;13860;52.370;6.764;2022-11-20T12:47:17;22.35;;;11.95;;
26098;SDS011;13860;52.370;6.764;2022-11-20T12:50:30;23.10;;;11.73;;
26098;SDS011;13860;52.370;6.764;2022-11-20T12:54:05;21.95;;;11.13;;
26098;SDS011;13860;52.370;6.764;2022-11-20T12:57:24;24.33;;;11.98;;
26098;SDS011;13860;52.370;6.764;2022-11-20T13:00:36;22.50;;;12.07;;
26098;SDS011;13860;52.370;6.764;2022-11-20T13:03:47;18.77;;;10.95;;
26098;SDS011;13860;52.370;6.764;2022-11-20T13:06:59;18.88;;;11.35;;
26098;SDS011;13860;52.370;6.764;2022-11-20T13:10:05;17.50;;;10.27;;
26098;SDS011;13860;52.370;6.764;2022-11-20T13:13:22;13.20;;;8.63;;
26098;SDS011;13860;52.370;6.764;2022-11-20T13:16:33;15.20;;;8.30;;
26098;SDS011;13860;52.370;6.764;2022-11-20T13:19:41;17.67;;;8.75;;
26098;SDS011;13860;52.370;6.764;2022-11-20T13:22:51;16.02;;;8.75;;
26098;SDS011;13860;52.370;6.764;2022-11-20T13:26:05;14.95;;;9.13;;
26098;SDS011;13860;52.370;6.764;2022-11-20T13:29:17;16.73;;;9.43;;
26098;SDS011;13860;52.370;6.764;2022-11-20T13:32:22;18.85;;;10.73;;
26098;SDS011;13860;52.370;6.764;2022-11-20T13:38:42;19.67;;;9.82;;
26098;SDS011;13860;52.370;6.764;2022-11-20T13:57:42;16.97;;;8.77;;
26098;SDS011;13860;52.370;6.764;2022-11-20T14:00:55;13.63;;;8.43;;
26098;SDS011;13860;52.370;6.764;2022-11-20T14:04:06;14.05;;;9.13;;
26098;SDS011;13860;52.370;6.764;2022-11-20T14:07:11;17.77;;;9.07;;
26098;SDS011;13860;52.370;6.764;2022-11-20T14:10:19;16.20;;;9.23;;
26098;SDS011;13860;52.370;6.764;2022-11-20T14:13:34;16.10;;;8.68;;
26098;SDS011;13860;52.370;6.764;2022-11-20T14:16:38;21.33;;;9.38;;
26098;SDS011;13860;52.370;6.764;2022-11-20T14:19:43;17.17;;;9.40;;
26098;SDS011;13860;52.370;6.764;2022-11-20T14:22:49;16.40;;;8.25;;
26098;SDS011;13860;52.370;6.764;2022-11-20T14:25:54;15.25;;;8.60;;
26098;SDS011;13860;52.370;6.764;2022-11-20T14:28:59;16.75;;;8.95;;
26098;SDS011;13860;52.370;6.764;2022-11-20T14:32:04;17.30;;;9.77;;
26098;SDS011;13860;52.370;6.764;2022-11-20T14:35:08;17.75;;;8.90;;
26098;SDS011;13860;52.370;6.764;2022-11-20T14:38:21;18.42;;;9.30;;
26098;SDS011;13860;52.370;6.764;2022-11-20T14:41:27;17.67;;;8.88;;
26098;SDS011;13860;52.370;6.764;2022-11-20T14:44:35;16.85;;;9.15;;
26098;SDS011;13860;52.370;6.764;2022-11-20T14:47:39;18.55;;;10.57;;
26098;SDS011;13860;52.370;6.764;2022-11-20T14:50:44;24.30;;;9.55;;
26098;SDS011;13860;52.370;6.764;2022-11-20T14:53:48;21.48;;;10.10;;
26098;SDS011;13860;52.370;6.764;2022-11-20T14:56:54;21.67;;;10.52;;
26098;SDS011;13860;52.370;6.764;2022-11-20T15:00:17;17.73;;;10.10;;
26098;SDS011;13860;52.370;6.764;2022-11-20T15:03:23;21.10;;;10.02;;
26098;SDS011;13860;52.370;6.764;2022-11-20T15:06:33;23.02;;;10.38;;
26098;SDS011;13860;52.370;6.764;2022-11-20T15:09:38;21.35;;;11.23;;
26098;SDS011;13860;52.370;6.764;2022-11-20T15:15:52;23.42;;;10.98;;
26098;SDS011;13860;52.370;6.764;2022-11-20T15:18:57;22.75;;;11.38;;
26098;SDS011;13860;52.370;6.764;2022-11-20T15:22:06;23.05;;;11.57;;
26098;SDS011;13860;52.370;6.764;2022-11-20T15:25:18;28.77;;;11.73;;
26098;SDS011;13860;52.370;6.764;2022-11-20T15:28:26;26.02;;;11.38;;
26098;SDS011;13860;52.370;6.764;2022-11-20T15:31:35;26.25;;;12.77;;
26098;SDS011;13860;52.370;6.764;2022-11-20T15:34:42;33.97;;;15.82;;
26098;SDS011;13860;52.370;6.764;2022-11-20T15:37:46;34.05;;;14.15;;
26098;SDS011;13860;52.370;6.764;2022-11-20T15:40:49;32.92;;;13.15;;
26098;SDS011;13860;52.370;6.764;2022-11-20T15:43:53;25.48;;;12.57;;
26098;SDS011;13860;52.370;6.764;2022-11-20T15:50:03;27.85;;;12.55;;
26098;SDS011;13860;52.370;6.764;2022-11-20T15:53:12;26.38;;;13.05;;
26098;SDS011;13860;52.370;6.764;2022-11-20T15:59:19;29.42;;;13.98;;
26098;SDS011;13860;52.370;6.764;2022-11-20T16:02:25;26.15;;;13.45;;
26098;SDS011;13860;52.370;6.764;2022-11-20T16:05:29;26.60;;;13.00;;
26098;SDS011;13860;52.370;6.764;2022-11-20T16:08:33;27.90;;;13.98;;
26098;SDS011;13860;52.370;6.764;2022-11-20T16:11:37;27.42;;;13.20;;
26098;SDS011;13860;52.370;6.764;2022-11-20T16:14:41;32.78;;;14.93;;
26098;SDS011;13860;52.370;6.764;2022-11-20T16:17:59;29.83;;;14.80;;
26098;SDS011;13860;52.370;6.764;2022-11-20T16:21:03;32.13;;;14.25;;
26098;SDS011;13860;52.370;6.764;2022-11-20T16:24:08;33.20;;;14.88;;
26098;SDS011;13860;52.370;6.764;2022-11-20T16:27:13;33.22;;;14.65;;
26098;SDS011;13860;52.370;6.764;2022-11-20T16:33:25;31.40;;;13.88;;
26098;SDS011;13860;52.370;6.764;2022-11-20T16:36:29;32.60;;;16.42;;
26098;SDS011;13860;52.370;6.764;2022-11-20T16:39:33;30.33;;;15.18;;
26098;SDS011;13860;52.370;6.764;2022-11-20T16:45:41;31.23;;;14.48;;
26098;SDS011;13860;52.370;6.764;2022-11-20T16:48:50;32.60;;;14.95;;
26098;SDS011;13860;52.370;6.764;2022-11-20T16:51:55;31.73;;;15.90;;
26098;SDS011;13860;52.370;6.764;2022-11-20T16:54:59;33.10;;;16.92;;
26098;SDS011;13860;52.370;6.764;2022-11-20T16:58:03;34.63;;;16.23;;
26098;SDS011;13860;52.370;6.764;2022-11-20T17:01:07;36.22;;;16.33;;
26098;SDS011;13860;52.370;6.764;2022-11-20T17:04:14;34.35;;;16.75;;
26098;SDS011;13860;52.370;6.764;2022-11-20T17:07:19;40.40;;;17.70;;
26098;SDS011;13860;52.370;6.764;2022-11-20T17:10:23;35.50;;;17.38;;
26098;SDS011;13860;52.370;6.764;2022-11-20T17:13:27;32.00;;;16.42;;
26098;SDS011;13860;52.370;6.764;2022-11-20T17:16:39;31.05;;;16.08;;
26098;SDS011;13860;52.370;6.764;2022-11-20T17:19:45;39.53;;;18.67;;
26098;SDS011;13860;52.370;6.764;2022-11-20T17:22:48;32.80;;;16.67;;
26098;SDS011;13860;52.370;6.764;2022-11-20T17:28:56;37.97;;;16.73;;
26098;SDS011;13860;52.370;6.764;2022-11-20T17:32:02;33.72;;;16.02;;
26098;SDS011;13860;52.370;6.764;2022-11-20T17:35:08;42.03;;;20.35;;
26098;SDS011;13860;52.370;6.764;2022-11-20T17:38:12;36.88;;;18.10;;
26098;SDS011;13860;52.370;6.764;2022-11-20T17:41:16;40.85;;;18.98;;
26098;SDS011;13860;52.370;6.764;2022-11-20T17:44:22;41.55;;;19.98;;
26098;SDS011;13860;52.370;6.764;2022-11-20T17:47:26;36.40;;;17.38;;
26098;SDS011;13860;52.370;6.764;2022-11-20T17:53:36;44.70;;;19.65;;
26098;SDS011;13860;52.370;6.764;2022-11-20T17:56:41;34.30;;;18.50;;
26098;SDS011;13860;52.370;6.764;2022-11-20T17:59:58;36.22;;;17.60;;
26098;SDS011;13860;52.370;6.764;2022-11-20T18:03:02;37.38;;;17.98;;
26098;SDS011;13860;52.370;6.764;2022-11-20T18:09:12;31.35;;;14.65;;
26098;SDS011;13860;52.370;6.764;2022-11-20T18:15:20;33.97;;;15.50;;
26098;SDS011;13860;52.370;6.764;2022-11-20T18:18:24;34.25;;;17.23;;
26098;SDS011;13860;52.370;6.764;2022-11-20T18:21:30;37.22;;;17.10;;
26098;SDS011;13860;52.370;6.764;2022-11-20T18:24:34;38.45;;;16.52;;
26098;SDS011;13860;52.370;6.764;2022-11-20T18:27:39;32.25;;;16.42;;
26098;SDS011;13860;52.370;6.764;2022-11-20T18:33:46;38.55;;;17.75;;
26098;SDS011;13860;52.370;6.764;2022-11-20T18:36:57;39.13;;;17.38;;
26098;SDS011;13860;52.370;6.764;2022-11-20T18:40:00;44.15;;;18.83;;
26098;SDS011;13860;52.370;6.764;2022-11-20T18:43:09;39.35;;;18.38;;
26098;SDS011;13860;52.370;6.764;2022-11-20T18:46:26;45.92;;;19.83;;
26098;SDS011;13860;52.370;6.764;2022-11-20T18:49:30;50.80;;;21.95;;
26098;SDS011;13860;52.370;6.764;2022-11-20T18:55:40;51.17;;;22.35;;
26098;SDS011;13860;52.370;6.764;2022-11-20T19:01:47;51.77;;;21.77;;
26098;SDS011;13860;52.370;6.764;2022-11-20T19:04:51;40.50;;;19.60;;
26098;SDS011;13860;52.370;6.764;2022-11-20T19:07:57;42.63;;;20.95;;
26098;SDS011;13860;52.370;6.764;2022-11-20T19:11:04;43.70;;;21.65;;
26098;SDS011;13860;52.370;6.764;2022-11-20T19:14:08;53.65;;;22.17;;
26098;SDS011;13860;52.370;6.764;2022-11-20T19:20:17;48.45;;;22.13;;
26098;SDS011;13860;52.370;6.764;2022-11-20T19:26:26;45.20;;;21.15;;
26098;SDS011;13860;52.370;6.764;2022-11-20T19:29:30;50.70;;;21.75;;
26098;SDS011;13860;52.370;6.764;2022-11-20T19:32:34;42.47;;;19.95;;
26098;SDS011;13860;52.370;6.764;2022-11-20T19:38:43;49.75;;;20.98;;
26098;SDS011;13860;52.370;6.764;2022-11-20T19:41:48;43.70;;;19.90;;
26098;SDS011;13860;52.370;6.764;2022-11-20T19:47:56;39.33;;;18.52;;
26098;SDS011;13860;52.370;6.764;2022-11-20T19:51:08;41.80;;;18.70;;
26098;SDS011;13860;52.370;6.764;2022-11-20T19:54:15;43.17;;;18.70;;
26098;SDS011;13860;52.370;6.764;2022-11-20T19:57:19;35.28;;;18.00;;